Time;durP1;ratioP1;P1;durP2;ratioP2;P2;SDS_P1;SDS_P2;PMS_P1;PMS_P2;Temp;Humidity;BMP_temperature;BMP_pressure;BME280_temperature;BME280_humidity;BME280_pressure;Samples;Min_cycle;Max_cycle;Signal;HPM_P1;HPM_P2
2022/01/24 00:00:35;;;;;;;3.80;3.50;;;4.40;99.90;;;;;;5033136;28;20480;-72
2022/01/24 00:03:02;;;;;;;3.33;2.90;;;4.40;99.90;;;;;;5033090;28;20450;-72
2022/01/24 00:05:28;;;;;;;3.53;3.23;;;4.40;99.90;;;;;;5044222;28;20476;-72
2022/01/24 00:07:55;;;;;;;3.30;3.00;;;4.40;99.90;;;;;;5052591;28;20460;-72
2022/01/24 00:10:25;;;;;;;3.70;3.40;;;4.40;99.90;;;;;;5052243;28;20484;-72
2022/01/24 00:13:05;;;;;;;3.17;2.97;;;4.40;99.90;;;;;;5037955;28;20466;-72
2022/01/24 00:15:55;;;;;;;4.73;3.33;;;4.40;99.90;;;;;;5029349;28;21012;-72
2022/01/24 00:18:31;;;;;;;3.83;3.47;;;4.40;99.90;;;;;;5033576;28;20536;-72
2022/01/24 00:26:45;;;;;;;4.17;3.63;;;4.40;99.90;;;;;;5032758;28;21037;-73
2022/01/24 00:29:12;;;;;;;6.03;3.83;;;4.40;99.90;;;;;;5048709;28;20510;-72
2022/01/24 00:31:39;;;;;;;4.50;4.10;;;4.40;99.90;;;;;;5049541;28;20521;-72
2022/01/24 00:34:07;;;;;;;4.60;4.10;;;4.40;99.90;;;;;;5031770;28;20453;-72
2022/01/24 00:36:35;;;;;;;4.80;4.30;;;4.40;99.90;;;;;;5042250;28;20534;-72
2022/01/24 00:39:01;;;;;;;5.33;4.10;;;4.40;99.90;;;;;;5043912;28;20450;-72
2022/01/24 00:41:28;;;;;;;4.33;3.93;;;4.40;99.90;;;;;;5031700;28;20453;-72
2022/01/24 00:44:15;;;;;;;6.10;4.13;;;4.30;99.90;;;;;;5033241;28;20457;-72
2022/01/24 00:46:48;;;;;;;8.30;3.83;;;4.30;99.90;;;;;;5049198;28;20996;-73
2022/01/24 00:49:37;;;;;;;4.30;3.90;;;4.40;99.90;;;;;;5049631;28;20480;-72
2022/01/24 00:54:47;;;;;;;6.40;4.50;;;4.30;99.90;;;;;;5003891;28;20444;-72
2022/01/24 00:57:15;;;;;;;5.20;4.40;;;4.30;99.90;;;;;;5051579;28;21045;-72
2022/01/24 00:59:41;;;;;;;9.00;4.60;;;4.30;99.90;;;;;;5042372;28;20503;-72
2022/01/24 01:02:08;;;;;;;7.43;4.00;;;4.30;99.90;;;;;;5032079;28;20473;-72
2022/01/24 01:04:48;;;;;;;5.33;4.27;;;4.30;99.90;;;;;;5035380;28;20446;-73
2022/01/24 01:07:19;;;;;;;3.40;3.10;;;4.40;99.90;;;;;;5031692;28;20472;-72
2022/01/24 01:18:14;;;;;;;2.60;2.50;;;4.40;99.90;;;;;;5050109;28;20466;-73
2022/01/24 01:21:00;;;;;;;2.60;2.50;;;4.40;99.90;;;;;;5050784;28;20480;-72
2022/01/24 01:23:28;;;;;;;2.30;2.03;;;4.40;99.90;;;;;;5050139;28;20545;-72
2022/01/24 01:25:55;;;;;;;1.90;1.80;;;4.40;99.90;;;;;;5051106;28;20453;-72
2022/01/24 01:28:24;;;;;;;2.17;2.07;;;4.40;99.90;;;;;;5050467;28;20474;-72
2022/01/24 01:30:54;;;;;;;2.60;2.40;;;4.40;99.90;;;;;;5042215;28;20571;-72
2022/01/24 01:33:30;;;;;;;3.63;2.50;;;4.40;99.90;;;;;;5035089;28;20540;-73
2022/01/24 01:36:07;;;;;;;3.07;2.83;;;4.40;99.90;;;;;;5048997;28;20487;-72
2022/01/24 01:38:59;;;;;;;2.63;2.43;;;4.40;99.90;;;;;;5031153;28;20508;-72
2022/01/24 01:52:47;;;;;;;3.47;2.30;;;4.30;99.90;;;;;;5031217;28;20429;-72
2022/01/24 01:55:25;;;;;;;2.47;2.27;;;4.30;99.90;;;;;;5035995;28;21053;-72
2022/01/24 01:57:52;;;;;;;2.47;2.27;;;4.30;99.90;;;;;;5050880;28;20460;-73
2022/01/24 02:00:19;;;;;;;2.10;1.90;;;4.30;99.90;;;;;;5036962;28;20504;-72
2022/01/24 02:02:47;;;;;;;2.30;2.10;;;4.30;99.90;;;;;;5040198;28;21144;-72
2022/01/24 02:05:14;;;;;;;2.50;2.30;;;4.30;99.90;;;;;;5048661;28;20510;-71
2022/01/24 02:07:50;;;;;;;2.30;2.20;;;4.30;99.90;;;;;;5050823;28;20463;-72
2022/01/24 02:10:18;;;;;;;1.97;1.87;;;4.20;99.90;;;;;;5046398;28;20491;-72
2022/01/24 02:12:45;;;;;;;2.17;2.07;;;4.20;99.90;;;;;;5031300;28;20496;-72
2022/01/24 02:15:16;;;;;;;2.50;2.30;;;4.20;99.90;;;;;;5034837;28;20480;-72
2022/01/24 02:17:54;;;;;;;2.40;2.20;;;4.20;99.90;;;;;;5048199;28;20452;-72
2022/01/24 02:20:39;;;;;;;2.90;2.70;;;4.20;99.90;;;;;;5031544;28;20453;-72
2022/01/24 02:23:31;;;;;;;2.40;2.20;;;4.20;99.90;;;;;;5030680;28;20464;-71
2022/01/24 02:26:01;;;;;;;4.23;2.47;;;4.30;99.90;;;;;;5030891;28;20477;-72
2022/01/24 02:28:32;;;;;;;3.30;3.00;;;4.20;99.90;;;;;;5035317;28;20485;-72
2022/01/24 02:31:17;;;;;;;2.80;2.60;;;4.20;99.90;;;;;;5049670;28;20948;-72
2022/01/24 02:33:46;;;;;;;2.90;2.70;;;4.20;99.90;;;;;;5042167;28;20463;-72
2022/01/24 02:36:19;;;;;;;3.50;2.60;;;4.20;99.90;;;;;;5064054;22;20538;-94
2022/01/24 02:39:00;;;;;;;2.90;2.60;;;4.20;99.90;;;;;;5069812;28;20432;-94
2022/01/24 02:49:39;;;;;;;2.60;2.40;;;4.10;99.90;;;;;;5043907;28;20511;-94
2022/01/24 02:52:08;;;;;;;1.80;1.70;;;4.10;99.90;;;;;;5079887;22;21107;-75
2022/01/24 02:54:38;;;;;;;2.00;1.90;;;4.10;99.90;;;;;;5052837;28;20461;-75
2022/01/24 02:57:08;;;;;;;1.90;1.80;;;4.10;99.90;;;;;;5039406;28;20476;-75
2022/01/24 02:59:36;;;;;;;1.80;1.70;;;4.10;99.90;;;;;;5033510;28;20506;-75
2022/01/24 03:02:03;;;;;;;2.03;1.93;;;4.10;99.90;;;;;;5033280;28;20496;-75
2022/01/24 03:04:30;;;;;;;2.30;2.20;;;4.10;99.90;;;;;;5032902;28;20872;-74
2022/01/24 03:06:57;;;;;;;2.10;2.00;;;4.10;99.90;;;;;;5033078;28;20469;-74
2022/01/24 03:09:24;;;;;;;2.00;1.90;;;4.10;99.90;;;;;;5032779;28;20548;-74
2022/01/24 03:12:03;;;;;;;1.80;1.70;;;4.10;99.90;;;;;;5032911;28;20460;-75
2022/01/24 03:14:32;;;;;;;2.60;2.07;;;4.10;99.90;;;;;;5033252;28;20538;-75
2022/01/24 03:16:59;;;;;;;2.00;1.90;;;4.00;99.90;;;;;;5032588;28;20473;-75
2022/01/24 03:19:26;;;;;;;2.20;2.00;;;4.00;99.90;;;;;;5032856;28;20851;-75
2022/01/24 03:21:53;;;;;;;1.70;1.60;;;4.00;99.90;;;;;;5032494;28;20909;-75
2022/01/24 03:24:20;;;;;;;2.00;1.67;;;4.00;99.90;;;;;;5033297;28;20451;-75
2022/01/24 03:26:47;;;;;;;1.93;1.73;;;4.00;99.90;;;;;;5032541;28;20477;-74
2022/01/24 03:29:16;;;;;;;2.80;1.90;;;4.00;99.90;;;;;;5037665;28;20468;-75
2022/01/24 03:31:45;;;;;;;1.90;1.80;;;4.00;99.90;;;;;;5041634;28;20572;-74
2022/01/24 03:34:12;;;;;;;3.43;2.53;;;4.00;99.90;;;;;;5032653;28;20454;-74
2022/01/24 03:36:38;;;;;;;2.93;2.40;;;4.00;99.90;;;;;;5032533;28;20531;-74
2022/01/24 03:39:05;;;;;;;2.40;2.20;;;4.00;99.90;;;;;;5032605;28;20457;-75
2022/01/24 03:41:32;;;;;;;2.73;2.20;;;4.00;99.90;;;;;;5032086;28;20449;-74
2022/01/24 03:44:03;;;;;;;2.30;2.20;;;4.00;99.90;;;;;;5032442;28;20576;-74
2022/01/24 03:46:46;;;;;;;2.90;2.40;;;3.90;99.90;;;;;;5032546;28;20488;-74
2022/01/24 03:49:45;;;;;;;2.17;2.07;;;4.00;99.90;;;;;;5031971;28;20461;-74
2022/01/24 03:52:01;;;;;;;2.17;2.07;;;3.90;99.90;;;;;;5031867;28;20463;-74
2022/01/24 03:54:27;;;;;;;2.17;2.07;;;3.90;99.90;;;;;;5032068;28;20445;-74
2022/01/24 03:56:54;;;;;;;2.03;1.93;;;3.90;99.90;;;;;;5031904;28;20527;-74
2022/01/24 03:59:21;;;;;;;2.27;2.17;;;3.90;99.90;;;;;;5031957;28;20460;-74
2022/01/24 04:01:49;;;;;;;1.90;1.80;;;3.90;99.90;;;;;;5031906;28;20810;-74
2022/01/24 04:04:16;;;;;;;2.30;2.20;;;3.90;99.90;;;;;;5032303;28;20499;-74
2022/01/24 04:06:42;;;;;;;2.50;2.40;;;3.90;99.90;;;;;;5032118;28;20515;-74
2022/01/24 04:09:09;;;;;;;2.17;2.07;;;3.90;99.90;;;;;;5031410;28;20544;-74
2022/01/24 04:11:38;;;;;;;2.30;2.20;;;3.90;99.90;;;;;;5032281;28;21071;-75
2022/01/24 04:14:24;;;;;;;2.00;1.90;;;3.90;99.90;;;;;;5031780;28;20446;-74
2022/01/24 04:17:05;;;;;;;2.00;1.90;;;3.90;99.90;;;;;;5031856;28;20469;-74
2022/01/24 04:21:19;;;;;;;2.33;2.10;;;3.90;99.90;;;;;;5031723;28;20455;-74
2022/01/24 04:22:27;;;;;;;2.23;2.10;;;3.90;99.90;;;;;;5031255;28;20452;-74
2022/01/24 04:24:59;;;;;;;2.17;2.07;;;3.90;99.90;;;;;;5031803;28;20477;-74
2022/01/24 04:27:26;;;;;;;2.13;2.03;;;3.80;99.90;;;;;;5022368;28;20879;-74
2022/01/24 04:29:53;;;;;;;2.00;1.90;;;3.80;99.90;;;;;;5031188;28;20511;-74
2022/01/24 04:32:22;;;;;;;4.00;2.13;;;3.80;99.90;;;;;;5031513;28;20882;-74
2022/01/24 04:34:49;;;;;;;2.10;2.00;;;3.80;99.90;;;;;;5031420;28;20465;-74
2022/01/24 04:37:16;;;;;;;2.97;1.90;;;3.80;99.90;;;;;;5030608;28;20896;-74
2022/01/24 04:39:44;;;;;;;2.37;1.90;;;3.80;99.90;;;;;;5031202;28;20461;-74
2022/01/24 04:42:15;;;;;;;2.07;1.60;;;3.80;99.90;;;;;;5031747;28;20563;-74
2022/01/24 04:44:57;;;;;;;1.80;1.70;;;3.80;99.90;;;;;;5031496;28;20449;-74
2022/01/24 04:47:30;;;;;;;1.80;1.70;;;3.80;99.90;;;;;;5026064;28;20481;-74
2022/01/24 04:52:51;;;;;;;1.80;1.70;;;3.80;99.90;;;;;;5031046;28;20983;-74
2022/01/24 04:55:17;;;;;;;2.10;2.00;;;3.80;99.90;;;;;;5031531;28;21022;-74
2022/01/24 04:57:46;;;;;;;1.97;1.87;;;3.80;99.90;;;;;;5030960;28;20985;-74
2022/01/24 05:00:14;;;;;;;2.03;1.93;;;3.80;99.90;;;;;;5030902;28;20454;-74
2022/01/24 05:02:42;;;;;;;2.13;1.70;;;3.80;99.90;;;;;;5030149;28;21003;-74
2022/01/24 05:05:13;;;;;;;2.47;1.60;;;3.80;99.90;;;;;;5030999;28;20522;-75
2022/01/24 05:07:40;;;;;;;2.50;1.70;;;3.80;99.90;;;;;;5030612;28;20480;-74
2022/01/24 05:10:15;;;;;;;2.20;2.00;;;3.80;99.90;;;;;;5013951;28;20454;-75
2022/01/24 05:23:42;;;;;;;1.60;1.50;;;3.80;99.90;;;;;;5030395;28;20611;-74
2022/01/24 05:26:09;;;;;;;1.50;1.40;;;3.80;99.90;;;;;;5030938;28;20987;-74
2022/01/24 05:28:38;;;;;;;1.97;1.87;;;3.80;99.90;;;;;;5030399;28;20834;-74
2022/01/24 05:31:05;;;;;;;1.80;1.70;;;3.80;99.90;;;;;;5040187;28;20489;-74
2022/01/24 05:33:33;;;;;;;1.80;1.70;;;3.80;99.90;;;;;;5030775;28;21008;-74
2022/01/24 05:36:00;;;;;;;2.30;2.20;;;3.80;99.90;;;;;;5029492;28;20481;-74
2022/01/24 05:38:27;;;;;;;1.87;1.77;;;3.80;99.90;;;;;;5029316;28;20453;-74
2022/01/24 05:40:54;;;;;;;1.80;1.70;;;3.80;99.90;;;;;;5030075;28;20457;-74
2022/01/24 05:43:21;;;;;;;2.03;1.80;;;3.80;99.90;;;;;;5030440;28;20441;-74
2022/01/24 05:45:48;;;;;;;1.90;1.80;;;3.80;99.90;;;;;;5030620;28;20460;-74
2022/01/24 05:48:15;;;;;;;1.93;1.83;;;3.80;99.90;;;;;;5030389;28;20454;-74
2022/01/24 05:50:43;;;;;;;1.93;1.83;;;3.80;99.90;;;;;;5029617;28;20484;-74
2022/01/24 05:53:10;;;;;;;1.80;1.70;;;3.80;99.90;;;;;;5030274;28;20453;-74
2022/01/24 05:55:36;;;;;;;1.80;1.70;;;3.80;99.90;;;;;;5030331;28;20449;-74
2022/01/24 05:58:03;;;;;;;2.40;2.20;;;3.80;99.90;;;;;;5030263;28;21023;-74
2022/01/24 06:00:30;;;;;;;2.10;2.00;;;3.80;99.90;;;;;;5030427;28;20508;-74
2022/01/24 06:02:57;;;;;;;1.80;1.70;;;3.80;99.90;;;;;;5030838;28;20953;-74
2022/01/24 06:05:24;;;;;;;2.13;1.93;;;3.80;99.90;;;;;;5029808;28;20515;-74
2022/01/24 06:07:54;;;;;;;1.70;1.60;;;3.80;99.90;;;;;;5014908;28;20481;-74
2022/01/24 06:10:20;;;;;;;1.70;1.60;;;3.80;99.90;;;;;;5022432;28;20552;-74
2022/01/24 06:12:47;;;;;;;1.80;1.70;;;3.80;99.90;;;;;;5031439;28;20449;-74
2022/01/24 06:15:14;;;;;;;1.80;1.70;;;3.80;99.90;;;;;;5034436;28;20492;-74
2022/01/24 06:17:41;;;;;;;1.60;1.50;;;3.80;99.90;;;;;;5034205;28;20483;-74
2022/01/24 06:20:09;;;;;;;1.60;1.50;;;3.80;99.90;;;;;;5033588;28;20512;-74
2022/01/24 06:22:36;;;;;;;3.10;1.47;;;3.80;99.90;;;;;;5034357;28;20453;-74
2022/01/24 06:25:06;;;;;;;1.40;1.30;;;3.80;99.90;;;;;;5034154;28;20461;-74
2022/01/24 06:27:33;;;;;;;1.30;1.20;;;3.80;99.90;;;;;;5035015;28;20469;-73
2022/01/24 06:29:59;;;;;;;1.97;1.77;;;3.90;99.90;;;;;;5045307;28;20494;-73
2022/01/24 06:32:26;;;;;;;1.77;1.67;;;3.80;99.90;;;;;;5050015;28;20489;-73
2022/01/24 06:34:52;;;;;;;1.80;1.70;;;3.80;99.90;;;;;;5033766;28;20461;-73
2022/01/24 06:37:19;;;;;;;1.70;1.60;;;3.80;99.90;;;;;;5029980;28;20546;-73
2022/01/24 06:39:46;;;;;;;1.90;1.80;;;3.80;99.90;;;;;;5033449;28;20453;-73
2022/01/24 06:42:21;;;;;;;5.33;1.70;;;3.80;99.90;;;;;;5031997;28;20446;-73
2022/01/24 06:44:48;;;;;;;1.83;1.73;;;3.80;99.90;;;;;;5029090;28;20833;-74
2022/01/24 06:47:15;;;;;;;1.70;1.60;;;3.80;99.90;;;;;;5034372;28;20469;-74
2022/01/24 06:49:42;;;;;;;2.07;1.97;;;3.90;99.90;;;;;;5033645;28;20453;-74
2022/01/24 06:52:08;;;;;;;1.80;1.70;;;3.90;99.90;;;;;;5032209;28;20485;-74
2022/01/24 06:54:36;;;;;;;2.07;1.77;;;3.80;99.90;;;;;;5033192;28;21024;-74
2022/01/24 06:57:04;;;;;;;2.10;2.00;;;3.80;99.90;;;;;;5033587;28;20469;-74
2022/01/24 06:59:32;;;;;;;1.80;1.70;;;3.80;99.90;;;;;;5033868;28;20453;-74
2022/01/24 07:01:59;;;;;;;1.87;1.77;;;3.80;99.90;;;;;;5033551;28;20445;-74
2022/01/24 07:04:25;;;;;;;1.70;1.60;;;3.80;99.90;;;;;;5032790;28;20445;-74
2022/01/24 07:06:52;;;;;;;1.87;1.77;;;3.80;99.90;;;;;;5033645;28;20523;-74
2022/01/24 07:09:19;;;;;;;1.80;1.70;;;3.80;99.90;;;;;;5032830;28;20457;-74
2022/01/24 07:11:46;;;;;;;2.13;1.73;;;3.80;99.90;;;;;;5032834;28;20488;-72
2022/01/24 07:14:13;;;;;;;2.10;2.00;;;3.80;99.90;;;;;;5032665;28;20457;-72
2022/01/24 07:17:05;;;;;;;1.90;1.80;;;3.80;99.90;;;;;;5033172;28;20477;-72
2022/01/24 07:19:32;;;;;;;3.10;2.07;;;3.80;99.90;;;;;;5029741;28;20465;-72
2022/01/24 07:22:01;;;;;;;2.30;2.10;;;3.80;99.90;;;;;;5032746;28;20450;-72
2022/01/24 07:24:28;;;;;;;2.10;2.00;;;3.80;99.90;;;;;;5038817;28;20509;-72
2022/01/24 07:26:55;;;;;;;2.17;2.03;;;3.80;99.90;;;;;;5029699;28;20477;-72
2022/01/24 07:29:22;;;;;;;2.10;1.90;;;3.80;99.90;;;;;;5031637;28;20469;-72
2022/01/24 07:31:50;;;;;;;2.10;2.00;;;3.80;99.90;;;;;;5031692;28;20539;-72
2022/01/24 07:34:17;;;;;;;1.80;1.70;;;3.80;99.90;;;;;;5031494;28;20519;-74
2022/01/24 07:36:44;;;;;;;2.00;1.90;;;3.80;99.90;;;;;;5032030;28;20481;-74
2022/01/24 07:39:11;;;;;;;3.23;1.87;;;3.80;99.90;;;;;;5026383;28;20450;-72
2022/01/24 07:41:43;;;;;;;1.70;1.60;;;3.80;99.90;;;;;;5031596;28;20531;-73
2022/01/24 07:44:10;;;;;;;3.37;1.90;;;3.80;99.90;;;;;;5034928;28;20461;-73
2022/01/24 07:46:37;;;;;;;2.87;1.53;;;3.80;99.90;;;;;;5052321;28;20472;-73
2022/01/24 07:49:08;;;;;;;2.80;2.00;;;3.80;99.90;;;;;;5034808;28;20464;-73
2022/01/24 07:51:35;;;;;;;3.53;2.00;;;3.80;99.90;;;;;;5030034;28;20559;-73
2022/01/24 07:54:02;;;;;;;2.20;2.10;;;3.80;99.90;;;;;;5031858;28;20953;-73
2022/01/24 07:56:28;;;;;;;2.30;2.20;;;3.80;99.90;;;;;;5032312;28;20523;-73
2022/01/24 07:58:55;;;;;;;2.13;2.03;;;3.80;99.90;;;;;;5030890;28;20458;-72
2022/01/24 08:01:22;;;;;;;2.33;1.90;;;3.80;99.90;;;;;;5030718;28;20453;-72
2022/01/24 08:03:48;;;;;;;2.47;2.27;;;3.80;99.90;;;;;;5032278;28;20602;-72
2022/01/24 08:06:18;;;;;;;1.90;1.80;;;3.80;99.90;;;;;;5031719;28;20858;-72
2022/01/24 08:08:45;;;;;;;1.70;1.60;;;3.80;99.90;;;;;;5032060;28;20449;-71
2022/01/24 08:11:12;;;;;;;1.77;1.67;;;3.80;99.90;;;;;;5029950;28;20742;-71
2022/01/24 08:13:39;;;;;;;2.53;1.77;;;3.80;99.90;;;;;;5031087;28;20461;-73
2022/01/24 08:16:05;;;;;;;1.80;1.70;;;3.80;99.90;;;;;;5031621;28;20845;-71
2022/01/24 08:18:32;;;;;;;2.50;2.30;;;3.80;99.90;;;;;;5029958;28;20457;-72
2022/01/24 08:20:59;;;;;;;2.40;2.17;;;3.80;99.90;;;;;;5028048;28;21032;-71
2022/01/24 08:23:27;;;;;;;2.90;1.93;;;3.80;99.90;;;;;;5031111;28;20457;-71
2022/01/24 08:25:53;;;;;;;1.80;1.70;;;3.70;99.90;;;;;;5030529;28;20532;-71
2022/01/24 08:28:20;;;;;;;3.03;2.30;;;3.80;99.90;;;;;;5030213;28;20508;-71
2022/01/24 08:30:47;;;;;;;1.90;1.80;;;3.80;99.90;;;;;;5032011;28;20992;-72
2022/01/24 08:33:13;;;;;;;2.80;1.87;;;3.80;99.90;;;;;;5030561;28;20538;-72
2022/01/24 08:35:40;;;;;;;5.30;2.13;;;3.80;99.90;;;;;;5030075;28;20457;-72
2022/01/24 08:38:06;;;;;;;2.63;2.00;;;3.90;99.90;;;;;;5030529;28;20461;-71
2022/01/24 08:40:37;;;;;;;2.67;2.40;;;3.90;99.90;;;;;;5029848;28;20874;-70
2022/01/24 08:43:06;;;;;;;4.90;2.00;;;3.90;99.90;;;;;;5029713;28;20456;-70
2022/01/24 08:45:50;;;;;;;2.43;2.30;;;3.90;99.90;;;;;;5030065;28;20548;-70
2022/01/24 08:48:20;;;;;;;2.80;2.60;;;3.90;99.90;;;;;;5030104;28;20460;-71
2022/01/24 08:50:48;;;;;;;2.70;2.50;;;3.90;99.90;;;;;;5029323;28;21038;-71
2022/01/24 08:53:15;;;;;;;3.00;2.80;;;3.90;99.90;;;;;;5029335;28;20489;-70
2022/01/24 08:55:44;;;;;;;2.40;2.30;;;3.90;99.90;;;;;;5029821;28;20454;-71
2022/01/24 08:58:14;;;;;;;2.70;2.50;;;3.90;99.90;;;;;;5029852;28;20953;-71
2022/01/24 09:00:43;;;;;;;2.53;2.33;;;3.90;99.90;;;;;;5029396;28;20530;-71
2022/01/24 09:03:09;;;;;;;2.13;2.03;;;3.90;99.90;;;;;;5028222;28;20958;-71
2022/01/24 09:05:36;;;;;;;4.10;2.07;;;3.90;99.90;;;;;;5030048;28;20834;-72
2022/01/24 09:08:04;;;;;;;2.97;2.70;;;3.90;99.90;;;;;;5035483;28;20453;-72
2022/01/24 09:10:31;;;;;;;2.47;2.27;;;4.00;99.90;;;;;;5035636;28;20488;-71
2022/01/24 09:12:59;;;;;;;2.87;2.53;;;4.00;99.90;;;;;;5029166;28;20539;-71
2022/01/24 09:15:26;;;;;;;8.47;2.60;;;4.00;99.90;;;;;;5029059;28;20511;-72
2022/01/24 09:17:53;;;;;;;3.07;2.80;;;4.00;99.90;;;;;;5036707;28;20526;-72
2022/01/24 09:20:20;;;;;;;2.43;2.33;;;4.00;99.90;;;;;;5036621;28;20457;-72
2022/01/24 09:22:49;;;;;;;3.90;2.60;;;4.10;99.90;;;;;;5037893;28;20452;-72
2022/01/24 09:25:17;;;;;;;2.87;2.67;;;4.10;99.90;;;;;;5032139;28;20908;-73
2022/01/24 09:27:44;;;;;;;7.53;2.50;;;4.10;99.90;;;;;;5030286;28;20465;-72
2022/01/24 09:30:14;;;;;;;3.30;3.00;;;4.20;99.90;;;;;;5034574;28;20441;-70
2022/01/24 09:32:41;;;;;;;3.40;3.10;;;4.10;99.90;;;;;;5031469;28;21059;-71
2022/01/24 09:35:09;;;;;;;3.40;3.10;;;4.10;99.90;;;;;;5048892;28;20456;-71
2022/01/24 09:37:37;;;;;;;3.30;2.83;;;4.10;99.90;;;;;;5032463;28;20527;-71
2022/01/24 09:40:04;;;;;;;3.23;2.43;;;4.20;99.90;;;;;;5030415;28;20505;-71
2022/01/24 09:42:32;;;;;;;3.47;3.17;;;4.20;99.90;;;;;;5030325;28;20442;-70
2022/01/24 09:44:59;;;;;;;4.37;3.93;;;4.20;99.90;;;;;;5029541;28;20507;-71
2022/01/24 09:47:27;;;;;;;4.07;3.40;;;4.20;99.90;;;;;;5029934;28;20482;-71
2022/01/24 09:49:53;;;;;;;6.90;3.40;;;4.20;99.90;;;;;;5030016;28;20449;-70
2022/01/24 09:52:20;;;;;;;4.33;2.80;;;4.20;99.90;;;;;;5029732;28;20585;-71
2022/01/24 09:54:48;;;;;;;4.73;3.40;;;4.20;99.90;;;;;;5059230;22;20858;-72
2022/01/24 09:57:15;;;;;;;6.10;3.27;;;4.20;99.90;;;;;;5049382;28;20510;-72
2022/01/24 09:59:41;;;;;;;2.70;2.50;;;4.20;99.90;;;;;;5048768;28;20502;-73
2022/01/24 10:02:08;;;;;;;3.73;3.43;;;4.20;99.90;;;;;;5049134;28;20446;-72
2022/01/24 10:04:36;;;;;;;4.53;3.27;;;4.20;99.90;;;;;;5040843;28;21000;-72
2022/01/24 10:07:06;;;;;;;3.60;3.30;;;4.20;99.90;;;;;;5037785;28;20472;-72
2022/01/24 10:09:38;;;;;;;2.90;2.70;;;4.20;99.90;;;;;;5030035;28;20878;-73
2022/01/24 10:12:13;;;;;;;4.00;3.67;;;4.20;99.90;;;;;;5029190;28;20577;-73
2022/01/24 10:17:27;;;;;;;5.60;3.30;;;4.20;99.90;;;;;;5030163;28;20937;-73
2022/01/24 10:19:55;;;;;;;6.07;3.50;;;4.20;99.90;;;;;;5028598;28;20540;-72
2022/01/24 10:22:24;;;;;;;4.10;3.20;;;4.20;99.90;;;;;;5029118;28;20453;-72
2022/01/24 10:24:54;;;;;;;6.03;3.00;;;4.20;99.90;;;;;;5032276;28;20555;-73
2022/01/24 10:27:24;;;;;;;4.07;3.67;;;4.20;99.90;;;;;;5026838;28;20464;-75
2022/01/24 10:29:54;;;;;;;4.20;3.77;;;4.30;99.90;;;;;;5036467;28;20449;-73
2022/01/24 10:32:29;;;;;;;5.20;3.03;;;4.30;99.90;;;;;;5028018;28;20492;-73
2022/01/24 10:34:58;;;;;;;4.10;3.70;;;4.30;99.90;;;;;;5028112;28;22184;-73
2022/01/24 10:37:25;;;;;;;4.33;3.53;;;4.30;99.90;;;;;;5050153;28;20444;-73
2022/01/24 10:39:58;;;;;;;5.37;4.47;;;4.30;99.90;;;;;;5028826;28;21056;-73
2022/01/24 10:45:14;;;;;;;3.70;3.13;;;4.30;99.90;;;;;;5030548;28;20460;-73
2022/01/24 10:47:45;;;;;;;7.70;4.07;;;4.40;99.90;;;;;;5030057;28;20449;-73
2022/01/24 10:50:23;;;;;;;3.80;3.50;;;4.30;99.90;;;;;;5029444;28;20453;-74
2022/01/24 10:52:50;;;;;;;3.20;3.00;;;4.30;99.90;;;;;;5030169;28;20583;-73
2022/01/24 10:55:19;;;;;;;5.03;3.60;;;4.40;99.90;;;;;;5028937;28;20540;-74
2022/01/24 10:57:48;;;;;;;7.23;3.90;;;4.40;99.90;;;;;;5029837;28;20461;-75
2022/01/24 11:00:19;;;;;;;3.97;3.60;;;4.40;99.90;;;;;;5030176;28;20515;-75
2022/01/24 11:02:49;;;;;;;3.23;2.93;;;4.40;99.90;;;;;;5031865;28;20456;-75
2022/01/24 11:05:20;;;;;;;3.57;3.27;;;4.40;99.90;;;;;;5032529;28;20472;-75
2022/01/24 11:07:54;;;;;;;3.90;3.57;;;4.40;99.90;;;;;;5032701;28;20512;-73
2022/01/24 11:10:22;;;;;;;4.00;3.67;;;4.40;99.90;;;;;;5032664;28;20453;-74
2022/01/24 11:12:48;;;;;;;5.57;3.20;;;4.50;99.90;;;;;;5032111;28;20535;-75
2022/01/24 11:15:15;;;;;;;3.83;3.50;;;4.50;99.90;;;;;;5031101;28;20480;-74
2022/01/24 11:17:44;;;;;;;11.03;3.60;;;4.50;99.90;;;;;;5031140;28;20469;-73
2022/01/24 11:20:14;;;;;;;3.83;3.43;;;4.50;99.90;;;;;;5031897;28;20485;-73
2022/01/24 11:22:45;;;;;;;3.10;2.90;;;4.40;99.90;;;;;;5033294;28;20444;-74
2022/01/24 11:25:12;;;;;;;3.60;2.93;;;4.40;99.90;;;;;;5031462;28;20488;-73
2022/01/24 11:27:42;;;;;;;3.43;3.17;;;4.40;99.90;;;;;;5032079;28;20519;-74
2022/01/24 11:30:11;;;;;;;3.47;3.10;;;4.40;99.90;;;;;;5034241;28;20457;-73
2022/01/24 11:32:42;;;;;;;6.27;3.67;;;4.40;99.90;;;;;;5031876;28;20535;-74
2022/01/24 11:35:10;;;;;;;3.73;2.83;;;4.40;99.90;;;;;;5029971;28;20465;-76
2022/01/24 11:37:39;;;;;;;2.90;2.60;;;4.50;99.90;;;;;;5032176;28;20817;-74
2022/01/24 11:40:11;;;;;;;6.30;3.20;;;4.50;99.90;;;;;;5030345;28;20446;-74
2022/01/24 11:42:40;;;;;;;3.07;2.80;;;4.40;99.90;;;;;;5032416;28;20445;-74
2022/01/24 11:45:13;;;;;;;3.20;3.00;;;4.40;99.90;;;;;;5032941;28;20516;-75
2022/01/24 11:47:41;;;;;;;4.90;3.00;;;4.40;99.90;;;;;;5052725;28;20972;-74
2022/01/24 11:50:27;;;;;;;4.03;3.20;;;4.40;99.90;;;;;;5042668;28;20507;-74
2022/01/24 11:52:56;;;;;;;4.07;3.77;;;4.40;99.90;;;;;;5029184;28;20485;-75
2022/01/24 11:55:34;;;;;;;3.97;3.60;;;4.40;99.90;;;;;;5029624;28;20623;-75
2022/01/24 11:58:03;;;;;;;3.30;3.07;;;4.40;99.90;;;;;;5031977;28;20456;-74
2022/01/24 12:00:36;;;;;;;3.63;3.33;;;4.50;99.90;;;;;;5031289;28;20453;-74
2022/01/24 12:03:16;;;;;;;6.00;3.00;;;4.50;99.90;;;;;;5041149;28;20965;-72
2022/01/24 12:05:45;;;;;;;3.83;2.97;;;4.60;99.90;;;;;;5032706;28;20976;-74
2022/01/24 12:08:27;;;;;;;9.20;4.17;;;4.50;99.90;;;;;;5032238;28;20226;-76
2022/01/24 12:10:58;;;;;;;3.08;2.78;;;4.60;99.90;;;;;;5040162;28;20446;-75
2022/01/24 12:13:28;;;;;;;3.37;3.07;;;4.70;99.90;;;;;;5030253;28;20222;-71
2022/01/24 12:15:57;;;;;;;42.97;25.47;;;4.80;99.90;;;;;;5030479;28;20469;-74
2022/01/24 12:18:46;;;;;;;6.73;3.10;;;4.70;99.90;;;;;;5031568;28;20500;-73
2022/01/24 12:21:16;;;;;;;3.07;2.77;;;4.70;99.90;;;;;;5022560;28;20469;-74
2022/01/24 12:23:44;;;;;;;3.13;2.93;;;4.70;99.90;;;;;;5029393;28;20792;-74
2022/01/24 12:26:23;;;;;;;3.30;3.00;;;4.70;99.90;;;;;;5043405;28;20472;-75
2022/01/24 12:28:53;;;;;;;3.70;3.10;;;4.80;99.90;;;;;;5051858;28;20249;-73
2022/01/24 12:31:22;;;;;;;4.53;3.00;;;4.70;99.90;;;;;;5047816;28;20461;-73
2022/01/24 12:34:00;;;;;;;3.33;2.90;;;4.60;99.90;;;;;;5036161;28;20907;-73
2022/01/24 12:37:00;;;;;;;3.57;2.80;;;4.60;99.90;;;;;;5036539;28;20507;-75
2022/01/24 12:39:32;;;;;;;2.80;2.60;;;4.60;99.90;;;;;;5042088;28;20449;-75
2022/01/24 12:42:06;;;;;;;4.78;2.90;;;4.60;99.90;;;;;;5040784;28;20449;-73
2022/01/24 12:47:18;;;;;;;4.60;2.80;;;4.60;99.90;;;;;;5007017;28;20444;-72
2022/01/24 12:49:46;;;;;;;4.70;3.10;;;4.60;99.90;;;;;;5029810;28;20507;-73
2022/01/24 12:52:15;;;;;;;2.53;2.33;;;4.70;99.90;;;;;;5031044;28;20809;-74
2022/01/24 12:54:44;;;;;;;3.33;2.90;;;4.70;99.90;;;;;;5030514;28;20238;-77
2022/01/24 12:57:15;;;;;;;3.10;2.80;;;4.70;99.90;;;;;;5030025;28;20957;-76
2022/01/24 12:59:53;;;;;;;4.33;3.40;;;4.60;99.90;;;;;;5029679;28;20463;-75
2022/01/24 13:02:24;;;;;;;2.97;2.70;;;4.50;99.90;;;;;;5036121;28;20445;-76
2022/01/24 13:04:52;;;;;;;7.87;5.33;;;4.50;99.90;;;;;;5037106;28;20229;-76
2022/01/24 13:07:19;;;;;;;3.20;2.90;;;4.60;99.90;;;;;;5036851;28;20824;-76
2022/01/24 13:09:46;;;;;;;6.37;3.77;;;4.70;99.90;;;;;;5034977;28;20505;-76
2022/01/24 13:12:15;;;;;;;6.73;5.40;;;4.80;99.90;;;;;;5039613;28;20469;-77
2022/01/24 13:14:47;;;;;;;4.40;3.60;;;4.70;99.90;;;;;;5037724;28;20579;-75
2022/01/24 13:22:51;;;;;;;3.17;2.87;;;4.80;99.90;;;;;;5029979;28;20436;-76
2022/01/24 13:25:23;;;;;;;3.33;3.03;;;4.80;99.90;;;;;;5031378;28;20533;-77
2022/01/24 13:27:53;;;;;;;3.23;3.03;;;4.70;99.90;;;;;;5031118;28;20852;-77
2022/01/24 13:30:24;;;;;;;3.77;3.47;;;4.60;99.90;;;;;;5031057;28;20461;-74
2022/01/24 13:32:52;;;;;;;5.93;2.93;;;4.60;99.90;;;;;;5030645;28;20833;-77
2022/01/24 13:35:26;;;;;;;12.40;3.60;;;4.50;99.90;;;;;;5029153;28;20480;-76
2022/01/24 13:37:56;;;;;;;6.00;2.97;;;4.50;99.90;;;;;;5046248;28;20471;-75
2022/01/24 13:40:35;;;;;;;3.83;3.30;;;4.60;99.90;;;;;;5039267;28;20873;-74
2022/01/24 13:43:05;;;;;;;10.40;3.80;;;4.60;99.90;;;;;;5029516;28;20448;-75
2022/01/24 13:45:35;;;;;;;4.13;3.80;;;4.60;99.90;;;;;;5033732;28;20460;-74
2022/01/24 13:48:03;;;;;;;3.77;3.47;;;4.70;99.90;;;;;;5042858;28;20460;-75
2022/01/24 13:50:30;;;;;;;4.63;3.70;;;4.70;99.90;;;;;;5030387;28;20453;-74
2022/01/24 13:52:57;;;;;;;5.73;3.53;;;4.70;99.90;;;;;;5030589;28;20472;-74
2022/01/24 13:55:24;;;;;;;4.23;3.20;;;4.70;99.90;;;;;;5029850;28;20489;-74
2022/01/24 13:57:53;;;;;;;8.10;3.03;;;4.60;99.90;;;;;;5030250;28;20458;-74
2022/01/24 14:00:25;;;;;;;3.97;3.57;;;4.60;99.90;;;;;;5029321;28;20515;-74
2022/01/24 14:03:07;;;;;;;5.23;3.23;;;4.60;99.90;;;;;;5034071;28;21171;-74
2022/01/24 14:05:33;;;;;;;4.03;3.70;;;4.70;99.90;;;;;;5025182;28;20472;-75
2022/01/24 14:08:14;;;;;;;3.50;3.17;;;4.70;99.90;;;;;;5030606;28;20875;-74
2022/01/24 14:10:40;;;;;;;3.70;3.10;;;4.60;99.90;;;;;;5028009;28;20881;-73
2022/01/24 14:13:08;;;;;;;3.90;3.50;;;4.60;99.90;;;;;;5040313;28;21194;-75
2022/01/24 14:15:47;;;;;;;5.67;3.40;;;4.60;99.90;;;;;;5029550;28;20504;-74